sensor_id;sensor_type;location;lat;lon;timestamp;P1;durP1;ratioP1;P2;durP2;ratioP2
18647;SDS011;9453;50.294;18.644;2022-08-21T04:00:59;7.50;;;5.00;;
18647;SDS011;9453;50.294;18.644;2022-08-21T04:03:27;9.60;;;5.15;;
18647;SDS011;9453;50.294;18.644;2022-08-21T04:05:54;9.10;;;4.40;;
18647;SDS011;9453;50.294;18.644;2022-08-21T04:08:21;6.47;;;4.40;;
18647;SDS011;9453;50.294;18.644;2022-08-21T04:10:49;7.72;;;5.18;;
18647;SDS011;9453;50.294;18.644;2022-08-21T04:13:18;9.05;;;5.80;;
18647;SDS011;9453;50.294;18.644;2022-08-21T04:15:45;7.93;;;4.93;;
18647;SDS011;9453;50.294;18.644;2022-08-21T04:18:14;8.15;;;4.50;;
18647;SDS011;9453;50.294;18.644;2022-08-21T04:20:42;9.85;;;4.82;;
18647;SDS011;9453;50.294;18.644;2022-08-21T04:23:10;8.18;;;5.25;;
18647;SDS011;9453;50.294;18.644;2022-08-21T04:25:37;11.27;;;5.32;;
18647;SDS011;9453;50.294;18.644;2022-08-21T04:28:04;7.88;;;4.72;;
18647;SDS011;9453;50.294;18.644;2022-08-21T04:30:31;7.05;;;4.93;;
18647;SDS011;9453;50.294;18.644;2022-08-21T04:32:58;8.80;;;5.05;;
18647;SDS011;9453;50.294;18.644;2022-08-21T04:35:27;6.65;;;4.30;;
18647;SDS011;9453;50.294;18.644;2022-08-21T04:37:55;7.93;;;4.18;;
18647;SDS011;9453;50.294;18.644;2022-08-21T04:40:23;7.93;;;5.22;;
18647;SDS011;9453;50.294;18.644;2022-08-21T04:42:53;7.40;;;4.82;;
18647;SDS011;9453;50.294;18.644;2022-08-21T04:45:23;7.78;;;4.70;;
18647;SDS011;9453;50.294;18.644;2022-08-21T04:47:53;6.60;;;4.18;;
18647;SDS011;9453;50.294;18.644;2022-08-21T04:50:22;6.43;;;4.30;;
18647;SDS011;9453;50.294;18.644;2022-08-21T04:52:54;6.22;;;4.38;;
18647;SDS011;9453;50.294;18.644;2022-08-21T04:55:21;9.68;;;4.57;;
18647;SDS011;9453;50.294;18.644;2022-08-21T04:57:52;9.10;;;4.70;;
18647;SDS011;9453;50.294;18.644;2022-08-21T05:00:20;11.23;;;4.57;;
18647;SDS011;9453;50.294;18.644;2022-08-21T05:02:49;13.18;;;5.18;;
18647;SDS011;9453;50.294;18.644;2022-08-21T05:05:21;11.52;;;4.90;;
18647;SDS011;9453;50.294;18.644;2022-08-21T05:07:48;8.13;;;4.07;;
18647;SDS011;9453;50.294;18.644;2022-08-21T05:10:16;11.88;;;4.32;;
18647;SDS011;9453;50.294;18.644;2022-08-21T05:12:43;7.53;;;3.35;;
18647;SDS011;9453;50.294;18.644;2022-08-21T05:15:11;5.38;;;3.78;;
18647;SDS011;9453;50.294;18.644;2022-08-21T05:17:38;9.85;;;4.15;;
18647;SDS011;9453;50.294;18.644;2022-08-21T05:20:05;5.72;;;3.78;;
18647;SDS011;9453;50.294;18.644;2022-08-21T05:22:33;9.82;;;4.63;;
18647;SDS011;9453;50.294;18.644;2022-08-21T05:25:00;9.40;;;4.90;;
18647;SDS011;9453;50.294;18.644;2022-08-21T05:29:53;6.28;;;4.22;;
18647;SDS011;9453;50.294;18.644;2022-08-21T05:32:20;10.18;;;5.00;;
18647;SDS011;9453;50.294;18.644;2022-08-21T05:34:47;7.82;;;4.75;;
18647;SDS011;9453;50.294;18.644;2022-08-21T05:37:14;11.73;;;4.35;;
18647;SDS011;9453;50.294;18.644;2022-08-21T05:39:40;8.77;;;4.75;;
18647;SDS011;9453;50.294;18.644;2022-08-21T05:42:07;8.07;;;5.13;;
18647;SDS011;9453;50.294;18.644;2022-08-21T05:44:34;11.30;;;4.28;;
18647;SDS011;9453;50.294;18.644;2022-08-21T05:47:04;8.15;;;4.53;;
18647;SDS011;9453;50.294;18.644;2022-08-21T05:49:32;8.88;;;4.28;;
18647;SDS011;9453;50.294;18.644;2022-08-21T05:51:59;5.70;;;3.38;;
18647;SDS011;9453;50.294;18.644;2022-08-21T05:54:26;5.97;;;3.30;;
18647;SDS011;9453;50.294;18.644;2022-08-21T05:56:53;4.43;;;2.50;;
18647;SDS011;9453;50.294;18.644;2022-08-21T05:59:20;6.00;;;3.08;;
18647;SDS011;9453;50.294;18.644;2022-08-21T06:01:48;6.60;;;2.50;;
18647;SDS011;9453;50.294;18.644;2022-08-21T06:04:18;3.58;;;2.33;;
18647;SDS011;9453;50.294;18.644;2022-08-21T06:06:45;8.90;;;2.75;;
18647;SDS011;9453;50.294;18.644;2022-08-21T06:09:13;3.47;;;2.03;;
18647;SDS011;9453;50.294;18.644;2022-08-21T06:11:40;6.03;;;2.30;;
18647;SDS011;9453;50.294;18.644;2022-08-21T06:14:07;7.35;;;2.47;;
18647;SDS011;9453;50.294;18.644;2022-08-21T06:16:34;6.93;;;1.83;;
18647;SDS011;9453;50.294;18.644;2022-08-21T06:19:01;6.38;;;1.95;;
18647;SDS011;9453;50.294;18.644;2022-08-21T06:21:29;8.30;;;1.55;;
18647;SDS011;9453;50.294;18.644;2022-08-21T06:23:56;5.28;;;1.20;;
18647;SDS011;9453;50.294;18.644;2022-08-21T06:26:23;4.03;;;1.13;;
18647;SDS011;9453;50.294;18.644;2022-08-21T06:28:50;5.30;;;1.00;;
18647;SDS011;9453;50.294;18.644;2022-08-21T06:31:18;3.50;;;1.20;;
18647;SDS011;9453;50.294;18.644;2022-08-21T06:33:46;6.45;;;1.25;;
18647;SDS011;9453;50.294;18.644;2022-08-21T06:36:13;2.13;;;0.90;;
18647;SDS011;9453;50.294;18.644;2022-08-21T06:38:42;5.38;;;1.08;;
18647;SDS011;9453;50.294;18.644;2022-08-21T06:41:08;2.75;;;1.10;;
18647;SDS011;9453;50.294;18.644;2022-08-21T06:43:35;1.83;;;1.00;;
18647;SDS011;9453;50.294;18.644;2022-08-21T06:46:02;3.58;;;1.10;;
18647;SDS011;9453;50.294;18.644;2022-08-21T06:48:29;1.15;;;0.80;;
18647;SDS011;9453;50.294;18.644;2022-08-21T06:50:58;2.30;;;0.60;;
18647;SDS011;9453;50.294;18.644;2022-08-21T06:53:25;3.53;;;0.95;;
18647;SDS011;9453;50.294;18.644;2022-08-21T06:55:54;0.90;;;0.68;;
18647;SDS011;9453;50.294;18.644;2022-08-21T06:58:21;2.25;;;0.88;;
18647;SDS011;9453;50.294;18.644;2022-08-21T07:00:48;3.08;;;0.80;;
18647;SDS011;9453;50.294;18.644;2022-08-21T07:03:18;3.30;;;0.73;;
18647;SDS011;9453;50.294;18.644;2022-08-21T07:05:46;2.50;;;0.60;;
18647;SDS011;9453;50.294;18.644;2022-08-21T07:08:13;2.00;;;0.70;;
18647;SDS011;9453;50.294;18.644;2022-08-21T07:10:40;3.28;;;0.70;;
18647;SDS011;9453;50.294;18.644;2022-08-21T07:13:08;1.52;;;0.70;;
18647;SDS011;9453;50.294;18.644;2022-08-21T07:15:35;2.58;;;0.80;;
18647;SDS011;9453;50.294;18.644;2022-08-21T07:18:02;2.35;;;0.88;;
18647;SDS011;9453;50.294;18.644;2022-08-21T07:20:29;1.05;;;0.68;;
18647;SDS011;9453;50.294;18.644;2022-08-21T07:22:58;1.65;;;0.60;;
18647;SDS011;9453;50.294;18.644;2022-08-21T07:25:27;2.10;;;0.95;;
18647;SDS011;9453;50.294;18.644;2022-08-21T07:27:54;2.78;;;0.82;;
18647;SDS011;9453;50.294;18.644;2022-08-21T07:30:22;3.85;;;0.82;;
18647;SDS011;9453;50.294;18.644;2022-08-21T07:32:50;2.13;;;1.33;;
18647;SDS011;9453;50.294;18.644;2022-08-21T07:35:17;2.75;;;0.85;;
18647;SDS011;9453;50.294;18.644;2022-08-21T07:37:45;2.17;;;1.02;;
18647;SDS011;9453;50.294;18.644;2022-08-21T07:40:12;3.90;;;0.90;;
18647;SDS011;9453;50.294;18.644;2022-08-21T07:42:40;1.23;;;0.60;;
18647;SDS011;9453;50.294;18.644;2022-08-21T07:45:08;2.03;;;0.55;;
18647;SDS011;9453;50.294;18.644;2022-08-21T07:47:36;0.73;;;0.45;;
18647;SDS011;9453;50.294;18.644;2022-08-21T07:50:04;2.63;;;0.60;;
18647;SDS011;9453;50.294;18.644;2022-08-21T07:52:31;2.15;;;0.85;;
18647;SDS011;9453;50.294;18.644;2022-08-21T07:54:58;2.72;;;0.63;;
18647;SDS011;9453;50.294;18.644;2022-08-21T07:57:26;0.88;;;0.40;;
18647;SDS011;9453;50.294;18.644;2022-08-21T07:59:52;1.60;;;0.65;;
18647;SDS011;9453;50.294;18.644;2022-08-21T08:02:23;1.63;;;0.50;;
18647;SDS011;9453;50.294;18.644;2022-08-21T08:04:52;3.80;;;0.60;;
18647;SDS011;9453;50.294;18.644;2022-08-21T08:07:19;4.20;;;0.70;;
18647;SDS011;9453;50.294;18.644;2022-08-21T08:09:45;2.05;;;0.90;;
18647;SDS011;9453;50.294;18.644;2022-08-21T08:12:12;0.80;;;0.50;;
18647;SDS011;9453;50.294;18.644;2022-08-21T08:14:39;3.55;;;0.70;;
18647;SDS011;9453;50.294;18.644;2022-08-21T08:17:06;1.08;;;0.70;;
18647;SDS011;9453;50.294;18.644;2022-08-21T08:19:33;1.20;;;0.40;;
18647;SDS011;9453;50.294;18.644;2022-08-21T08:22:01;2.80;;;0.68;;
18647;SDS011;9453;50.294;18.644;2022-08-21T08:24:37;1.40;;;0.70;;
18647;SDS011;9453;50.294;18.644;2022-08-21T08:27:05;3.38;;;0.65;;
18647;SDS011;9453;50.294;18.644;2022-08-21T08:29:31;4.57;;;0.82;;
18647;SDS011;9453;50.294;18.644;2022-08-21T08:31:58;6.10;;;1.17;;
18647;SDS011;9453;50.294;18.644;2022-08-21T08:34:25;2.65;;;0.70;;
18647;SDS011;9453;50.294;18.644;2022-08-21T08:36:52;1.65;;;0.70;;
18647;SDS011;9453;50.294;18.644;2022-08-21T08:39:20;1.55;;;1.05;;
18647;SDS011;9453;50.294;18.644;2022-08-21T08:41:47;2.72;;;0.82;;
18647;SDS011;9453;50.294;18.644;2022-08-21T08:44:17;1.98;;;1.05;;
18647;SDS011;9453;50.294;18.644;2022-08-21T08:46:45;2.45;;;0.90;;
18647;SDS011;9453;50.294;18.644;2022-08-21T08:49:15;4.53;;;0.88;;
18647;SDS011;9453;50.294;18.644;2022-08-21T08:51:46;1.42;;;0.80;;
18647;SDS011;9453;50.294;18.644;2022-08-21T08:54:19;1.40;;;0.80;;
18647;SDS011;9453;50.294;18.644;2022-08-21T08:56:56;2.22;;;0.70;;
18647;SDS011;9453;50.294;18.644;2022-08-21T08:59:25;3.30;;;0.80;;
18647;SDS011;9453;50.294;18.644;2022-08-21T09:01:53;1.48;;;0.75;;
18647;SDS011;9453;50.294;18.644;2022-08-21T09:04:22;1.10;;;0.90;;
18647;SDS011;9453;50.294;18.644;2022-08-21T09:06:55;1.20;;;0.70;;
18647;SDS011;9453;50.294;18.644;2022-08-21T09:09:38;1.55;;;0.80;;
18647;SDS011;9453;50.294;18.644;2022-08-21T09:12:15;1.10;;;0.68;;
18647;SDS011;9453;50.294;18.644;2022-08-21T09:14:52;1.95;;;1.02;;
18647;SDS011;9453;50.294;18.644;2022-08-21T09:17:31;2.03;;;0.90;;
18647;SDS011;9453;50.294;18.644;2022-08-21T09:20:12;1.45;;;1.00;;
18647;SDS011;9453;50.294;18.644;2022-08-21T09:22:47;2.10;;;1.10;;
18647;SDS011;9453;50.294;18.644;2022-08-21T09:25:26;1.25;;;1.02;;
18647;SDS011;9453;50.294;18.644;2022-08-21T09:27:57;1.42;;;1.10;;
18647;SDS011;9453;50.294;18.644;2022-08-21T09:30:24;3.17;;;1.00;;
18647;SDS011;9453;50.294;18.644;2022-08-21T09:32:53;2.67;;;1.60;;
18647;SDS011;9453;50.294;18.644;2022-08-21T09:35:22;4.03;;;2.47;;
18647;SDS011;9453;50.294;18.644;2022-08-21T09:37:51;3.58;;;1.90;;
18647;SDS011;9453;50.294;18.644;2022-08-21T09:40:23;3.15;;;2.33;;
18647;SDS011;9453;50.294;18.644;2022-08-21T09:43:03;3.05;;;2.10;;
18647;SDS011;9453;50.294;18.644;2022-08-21T09:45:34;4.22;;;2.15;;
18647;SDS011;9453;50.294;18.644;2022-08-21T09:48:08;2.47;;;1.65;;
18647;SDS011;9453;50.294;18.644;2022-08-21T09:50:35;5.28;;;2.40;;
18647;SDS011;9453;50.294;18.644;2022-08-21T09:53:03;5.25;;;3.00;;
18647;SDS011;9453;50.294;18.644;2022-08-21T09:55:32;4.50;;;3.10;;
18647;SDS011;9453;50.294;18.644;2022-08-21T09:58:29;7.50;;;3.70;;
18647;SDS011;9453;50.294;18.644;2022-08-21T10:00:58;8.38;;;4.72;;
18647;SDS011;9453;50.294;18.644;2022-08-21T10:03:26;5.32;;;3.30;;
18647;SDS011;9453;50.294;18.644;2022-08-21T10:05:55;6.25;;;3.63;;
18647;SDS011;9453;50.294;18.644;2022-08-21T10:08:26;5.47;;;3.35;;
18647;SDS011;9453;50.294;18.644;2022-08-21T10:10:56;4.80;;;3.22;;
18647;SDS011;9453;50.294;18.644;2022-08-21T10:13:44;4.10;;;3.08;;
18647;SDS011;9453;50.294;18.644;2022-08-21T10:16:20;4.50;;;3.10;;
18647;SDS011;9453;50.294;18.644;2022-08-21T10:19:00;4.35;;;3.20;;
18647;SDS011;9453;50.294;18.644;2022-08-21T10:21:35;3.80;;;2.45;;
18647;SDS011;9453;50.294;18.644;2022-08-21T10:24:08;4.22;;;3.53;;
18647;SDS011;9453;50.294;18.644;2022-08-21T10:26:44;5.00;;;3.05;;
18647;SDS011;9453;50.294;18.644;2022-08-21T10:29:21;3.90;;;2.50;;
18647;SDS011;9453;50.294;18.644;2022-08-21T10:32:04;5.80;;;2.90;;
18647;SDS011;9453;50.294;18.644;2022-08-21T10:34:41;4.18;;;3.08;;
18647;SDS011;9453;50.294;18.644;2022-08-21T10:37:18;6.22;;;2.75;;
18647;SDS011;9453;50.294;18.644;2022-08-21T10:39:55;5.60;;;2.55;;
18647;SDS011;9453;50.294;18.644;2022-08-21T10:42:36;5.63;;;3.20;;
18647;SDS011;9453;50.294;18.644;2022-08-21T10:45:11;3.90;;;2.65;;
18647;SDS011;9453;50.294;18.644;2022-08-21T10:47:44;4.72;;;2.58;;
18647;SDS011;9453;50.294;18.644;2022-08-21T10:50:17;2.97;;;1.90;;
18647;SDS011;9453;50.294;18.644;2022-08-21T10:52:56;3.25;;;1.88;;
18647;SDS011;9453;50.294;18.644;2022-08-21T10:55:31;6.60;;;1.90;;
18647;SDS011;9453;50.294;18.644;2022-08-21T10:58:04;2.08;;;1.25;;
18647;SDS011;9453;50.294;18.644;2022-08-21T11:00:37;2.08;;;1.30;;
18647;SDS011;9453;50.294;18.644;2022-08-21T11:03:10;1.95;;;1.30;;
18647;SDS011;9453;50.294;18.644;2022-08-21T11:05:42;3.17;;;1.13;;
18647;SDS011;9453;50.294;18.644;2022-08-21T11:08:17;1.98;;;1.20;;
18647;SDS011;9453;50.294;18.644;2022-08-21T11:10:49;2.33;;;1.13;;
18647;SDS011;9453;50.294;18.644;2022-08-21T11:13:21;3.30;;;1.30;;
18647;SDS011;9453;50.294;18.644;2022-08-21T11:15:55;3.58;;;1.60;;
18647;SDS011;9453;50.294;18.644;2022-08-21T11:18:27;4.40;;;1.80;;
18647;SDS011;9453;50.294;18.644;2022-08-21T11:20:59;2.10;;;1.40;;
18647;SDS011;9453;50.294;18.644;2022-08-21T11:23:31;0.98;;;0.70;;
18647;SDS011;9453;50.294;18.644;2022-08-21T11:26:07;1.08;;;0.60;;
18647;SDS011;9453;50.294;18.644;2022-08-21T11:28:40;0.95;;;0.63;;
18647;SDS011;9453;50.294;18.644;2022-08-21T11:31:17;1.17;;;0.80;;
18647;SDS011;9453;50.294;18.644;2022-08-21T11:34:00;1.52;;;0.90;;
18647;SDS011;9453;50.294;18.644;2022-08-21T11:36:40;0.73;;;0.73;;
18647;SDS011;9453;50.294;18.644;2022-08-21T11:39:30;1.20;;;0.85;;
18647;SDS011;9453;50.294;18.644;2022-08-21T11:42:04;1.00;;;0.80;;
18647;SDS011;9453;50.294;18.644;2022-08-21T11:44:44;1.30;;;0.68;;
18647;SDS011;9453;50.294;18.644;2022-08-21T11:47:19;1.50;;;0.80;;
18647;SDS011;9453;50.294;18.644;2022-08-21T11:49:56;1.25;;;0.68;;
18647;SDS011;9453;50.294;18.644;2022-08-21T11:52:40;0.90;;;0.75;;
18647;SDS011;9453;50.294;18.644;2022-08-21T11:55:11;1.50;;;0.80;;
18647;SDS011;9453;50.294;18.644;2022-08-21T11:57:44;1.27;;;0.80;;
18647;SDS011;9453;50.294;18.644;2022-08-21T12:00:20;1.15;;;0.60;;
18647;SDS011;9453;50.294;18.644;2022-08-21T12:02:51;1.02;;;0.93;;
18647;SDS011;9453;50.294;18.644;2022-08-21T12:05:23;0.98;;;0.88;;
18647;SDS011;9453;50.294;18.644;2022-08-21T12:08:04;1.20;;;0.82;;
18647;SDS011;9453;50.294;18.644;2022-08-21T12:10:34;0.93;;;0.80;;
18647;SDS011;9453;50.294;18.644;2022-08-21T12:13:06;1.08;;;0.88;;
18647;SDS011;9453;50.294;18.644;2022-08-21T12:15:37;0.80;;;0.80;;
18647;SDS011;9453;50.294;18.644;2022-08-21T12:18:05;1.50;;;1.05;;
18647;SDS011;9453;50.294;18.644;2022-08-21T12:21:00;1.63;;;0.98;;
18647;SDS011;9453;50.294;18.644;2022-08-21T12:23:30;4.22;;;1.00;;
18647;SDS011;9453;50.294;18.644;2022-08-21T12:28:49;1.08;;;0.90;;
18647;SDS011;9453;50.294;18.644;2022-08-21T12:31:19;2.20;;;1.20;;
18647;SDS011;9453;50.294;18.644;2022-08-21T12:33:51;2.08;;;1.13;;
18647;SDS011;9453;50.294;18.644;2022-08-21T12:36:22;1.30;;;1.20;;
18647;SDS011;9453;50.294;18.644;2022-08-21T12:38:53;2.03;;;1.05;;
18647;SDS011;9453;50.294;18.644;2022-08-21T12:41:24;1.42;;;1.15;;
18647;SDS011;9453;50.294;18.644;2022-08-21T12:43:57;1.23;;;1.10;;
18647;SDS011;9453;50.294;18.644;2022-08-21T12:46:30;1.20;;;1.05;;
18647;SDS011;9453;50.294;18.644;2022-08-21T12:49:03;1.45;;;1.10;;
18647;SDS011;9453;50.294;18.644;2022-08-21T12:51:37;3.13;;;1.38;;
18647;SDS011;9453;50.294;18.644;2022-08-21T12:54:22;1.63;;;1.48;;
18647;SDS011;9453;50.294;18.644;2022-08-21T12:57:01;1.90;;;1.63;;
18647;SDS011;9453;50.294;18.644;2022-08-21T12:59:29;3.42;;;1.88;;
18647;SDS011;9453;50.294;18.644;2022-08-21T13:01:59;3.60;;;2.05;;
18647;SDS011;9453;50.294;18.644;2022-08-21T13:04:32;3.45;;;2.00;;
18647;SDS011;9453;50.294;18.644;2022-08-21T13:07:05;2.70;;;2.13;;
18647;SDS011;9453;50.294;18.644;2022-08-21T13:09:36;6.30;;;3.03;;
18647;SDS011;9453;50.294;18.644;2022-08-21T13:12:10;4.93;;;2.78;;
18647;SDS011;9453;50.294;18.644;2022-08-21T13:14:39;4.50;;;2.78;;
18647;SDS011;9453;50.294;18.644;2022-08-21T13:17:09;5.43;;;2.60;;
18647;SDS011;9453;50.294;18.644;2022-08-21T13:19:37;4.80;;;2.90;;
18647;SDS011;9453;50.294;18.644;2022-08-21T13:22:04;10.32;;;3.65;;
18647;SDS011;9453;50.294;18.644;2022-08-21T13:24:39;4.47;;;3.22;;
18647;SDS011;9453;50.294;18.644;2022-08-21T13:27:15;5.45;;;3.70;;
18647;SDS011;9453;50.294;18.644;2022-08-21T13:29:46;5.50;;;3.83;;
18647;SDS011;9453;50.294;18.644;2022-08-21T13:32:17;5.65;;;4.20;;
18647;SDS011;9453;50.294;18.644;2022-08-21T13:34:51;5.97;;;3.97;;
18647;SDS011;9453;50.294;18.644;2022-08-21T13:37:18;9.43;;;3.47;;
18647;SDS011;9453;50.294;18.644;2022-08-21T13:39:48;5.80;;;3.90;;
18647;SDS011;9453;50.294;18.644;2022-08-21T13:42:17;6.03;;;3.63;;
18647;SDS011;9453;50.294;18.644;2022-08-21T13:44:45;6.40;;;3.88;;
18647;SDS011;9453;50.294;18.644;2022-08-21T13:47:14;5.43;;;3.95;;
18647;SDS011;9453;50.294;18.644;2022-08-21T13:49:44;7.15;;;4.05;;
18647;SDS011;9453;50.294;18.644;2022-08-21T13:52:14;8.82;;;3.92;;
18647;SDS011;9453;50.294;18.644;2022-08-21T13:54:43;6.80;;;4.43;;
18647;SDS011;9453;50.294;18.644;2022-08-21T13:57:17;9.95;;;4.65;;
18647;SDS011;9453;50.294;18.644;2022-08-21T13:59:45;8.70;;;4.72;;
18647;SDS011;9453;50.294;18.644;2022-08-21T14:02:13;7.95;;;5.07;;
18647;SDS011;9453;50.294;18.644;2022-08-21T14:04:44;8.65;;;5.60;;
18647;SDS011;9453;50.294;18.644;2022-08-21T14:07:19;11.35;;;6.03;;
18647;SDS011;9453;50.294;18.644;2022-08-21T14:09:53;17.08;;;6.60;;
18647;SDS011;9453;50.294;18.644;2022-08-21T14:12:24;13.70;;;7.10;;
18647;SDS011;9453;50.294;18.644;2022-08-21T14:14:54;12.68;;;6.88;;
18647;SDS011;9453;50.294;18.644;2022-08-21T14:17:27;13.68;;;6.53;;
18647;SDS011;9453;50.294;18.644;2022-08-21T14:19:58;11.95;;;7.15;;
18647;SDS011;9453;50.294;18.644;2022-08-21T14:22:30;20.58;;;7.65;;
18647;SDS011;9453;50.294;18.644;2022-08-21T14:25:02;14.27;;;7.40;;
18647;SDS011;9453;50.294;18.644;2022-08-21T14:27:31;10.68;;;7.00;;
18647;SDS011;9453;50.294;18.644;2022-08-21T14:29:59;9.65;;;6.35;;
18647;SDS011;9453;50.294;18.644;2022-08-21T14:32:30;13.75;;;6.43;;
18647;SDS011;9453;50.294;18.644;2022-08-21T14:35:05;11.73;;;7.20;;
18647;SDS011;9453;50.294;18.644;2022-08-21T14:37:33;14.02;;;6.75;;
18647;SDS011;9453;50.294;18.644;2022-08-21T14:40:00;12.35;;;6.90;;
18647;SDS011;9453;50.294;18.644;2022-08-21T14:42:27;12.38;;;6.60;;
18647;SDS011;9453;50.294;18.644;2022-08-21T14:44:55;10.13;;;5.80;;
18647;SDS011;9453;50.294;18.644;2022-08-21T14:47:27;16.83;;;6.65;;
18647;SDS011;9453;50.294;18.644;2022-08-21T14:49:54;14.95;;;6.63;;
18647;SDS011;9453;50.294;18.644;2022-08-21T14:52:22;10.73;;;6.38;;
18647;SDS011;9453;50.294;18.644;2022-08-21T14:54:49;8.45;;;5.38;;
18647;SDS011;9453;50.294;18.644;2022-08-21T14:57:16;12.52;;;6.00;;
18647;SDS011;9453;50.294;18.644;2022-08-21T14:59:43;11.48;;;5.63;;
18647;SDS011;9453;50.294;18.644;2022-08-21T15:02:10;11.75;;;5.63;;
18647;SDS011;9453;50.294;18.644;2022-08-21T15:04:37;9.07;;;5.03;;
18647;SDS011;9453;50.294;18.644;2022-08-21T15:07:04;11.23;;;6.10;;
18647;SDS011;9453;50.294;18.644;2022-08-21T15:09:32;10.65;;;5.88;;
18647;SDS011;9453;50.294;18.644;2022-08-21T15:12:00;13.02;;;6.35;;
18647;SDS011;9453;50.294;18.644;2022-08-21T15:14:29;16.02;;;6.97;;
18647;SDS011;9453;50.294;18.644;2022-08-21T15:16:58;15.77;;;6.35;;
18647;SDS011;9453;50.294;18.644;2022-08-21T15:19:25;16.55;;;6.75;;
18647;SDS011;9453;50.294;18.644;2022-08-21T15:21:54;12.98;;;7.18;;
18647;SDS011;9453;50.294;18.644;2022-08-21T15:24:24;19.10;;;7.20;;
18647;SDS011;9453;50.294;18.644;2022-08-21T15:26:52;13.00;;;6.47;;
18647;SDS011;9453;50.294;18.644;2022-08-21T15:29:21;12.68;;;6.38;;
18647;SDS011;9453;50.294;18.644;2022-08-21T15:31:51;16.83;;;7.30;;
18647;SDS011;9453;50.294;18.644;2022-08-21T15:34:21;14.35;;;6.68;;
18647;SDS011;9453;50.294;18.644;2022-08-21T15:36:48;12.02;;;7.05;;
18647;SDS011;9453;50.294;18.644;2022-08-21T15:39:15;12.07;;;6.50;;
18647;SDS011;9453;50.294;18.644;2022-08-21T15:41:43;13.27;;;6.60;;
18647;SDS011;9453;50.294;18.644;2022-08-21T15:44:11;16.42;;;7.18;;
18647;SDS011;9453;50.294;18.644;2022-08-21T15:46:39;16.23;;;6.30;;
18647;SDS011;9453;50.294;18.644;2022-08-21T15:49:07;11.95;;;6.05;;
18647;SDS011;9453;50.294;18.644;2022-08-21T15:51:34;14.27;;;6.45;;
18647;SDS011;9453;50.294;18.644;2022-08-21T15:54:01;10.20;;;6.60;;
18647;SDS011;9453;50.294;18.644;2022-08-21T15:56:32;12.80;;;6.18;;
18647;SDS011;9453;50.294;18.644;2022-08-21T15:59:05;9.20;;;5.25;;
18647;SDS011;9453;50.294;18.644;2022-08-21T16:01:36;13.65;;;5.88;;
18647;SDS011;9453;50.294;18.644;2022-08-21T16:04:04;11.80;;;5.80;;
18647;SDS011;9453;50.294;18.644;2022-08-21T16:06:32;17.65;;;6.18;;
18647;SDS011;9453;50.294;18.644;2022-08-21T16:08:59;16.10;;;6.57;;
18647;SDS011;9453;50.294;18.644;2022-08-21T16:11:26;11.40;;;6.20;;
18647;SDS011;9453;50.294;18.644;2022-08-21T16:13:54;12.77;;;5.50;;
18647;SDS011;9453;50.294;18.644;2022-08-21T16:16:23;10.63;;;5.90;;
18647;SDS011;9453;50.294;18.644;2022-08-21T16:18:51;14.52;;;6.20;;
18647;SDS011;9453;50.294;18.644;2022-08-21T16:21:19;12.18;;;6.78;;
18647;SDS011;9453;50.294;18.644;2022-08-21T16:23:45;11.80;;;6.57;;
18647;SDS011;9453;50.294;18.644;2022-08-21T16:26:13;21.83;;;7.70;;
18647;SDS011;9453;50.294;18.644;2022-08-21T16:28:42;12.80;;;7.72;;
18647;SDS011;9453;50.294;18.644;2022-08-21T16:31:10;12.90;;;6.63;;
18647;SDS011;9453;50.294;18.644;2022-08-21T16:33:39;19.10;;;7.22;;
18647;SDS011;9453;50.294;18.644;2022-08-21T16:36:10;13.77;;;7.78;;
18647;SDS011;9453;50.294;18.644;2022-08-21T16:38:37;18.83;;;8.32;;
18647;SDS011;9453;50.294;18.644;2022-08-21T16:41:08;20.95;;;7.97;;
18647;SDS011;9453;50.294;18.644;2022-08-21T16:43:36;20.05;;;8.68;;
18647;SDS011;9453;50.294;18.644;2022-08-21T16:46:05;96.38;;;11.27;;
18647;SDS011;9453;50.294;18.644;2022-08-21T16:48:33;24.85;;;8.52;;
18647;SDS011;9453;50.294;18.644;2022-08-21T16:51:00;30.35;;;9.30;;
18647;SDS011;9453;50.294;18.644;2022-08-21T16:53:29;31.02;;;8.98;;
18647;SDS011;9453;50.294;18.644;2022-08-21T16:55:56;21.65;;;8.32;;
18647;SDS011;9453;50.294;18.644;2022-08-21T16:58:24;21.65;;;7.88;;
18647;SDS011;9453;50.294;18.644;2022-08-21T17:00:53;28.17;;;8.75;;
18647;SDS011;9453;50.294;18.644;2022-08-21T17:03:24;19.60;;;7.68;;
18647;SDS011;9453;50.294;18.644;2022-08-21T17:05:55;18.63;;;6.72;;
18647;SDS011;9453;50.294;18.644;2022-08-21T17:08:22;16.60;;;6.75;;
18647;SDS011;9453;50.294;18.644;2022-08-21T17:10:50;45.58;;;8.07;;
18647;SDS011;9453;50.294;18.644;2022-08-21T17:13:17;39.35;;;7.57;;
18647;SDS011;9453;50.294;18.644;2022-08-21T17:15:45;51.10;;;7.60;;
18647;SDS011;9453;50.294;18.644;2022-08-21T17:18:13;11.77;;;5.00;;
18647;SDS011;9453;50.294;18.644;2022-08-21T17:20:42;18.90;;;5.60;;
18647;SDS011;9453;50.294;18.644;2022-08-21T17:23:09;11.90;;;4.30;;
18647;SDS011;9453;50.294;18.644;2022-08-21T17:25:36;12.82;;;4.82;;
18647;SDS011;9453;50.294;18.644;2022-08-21T17:28:06;11.27;;;4.28;;
18647;SDS011;9453;50.294;18.644;2022-08-21T17:30:34;14.63;;;5.00;;
18647;SDS011;9453;50.294;18.644;2022-08-21T17:33:02;11.80;;;4.50;;
18647;SDS011;9453;50.294;18.644;2022-08-21T17:35:28;11.55;;;4.13;;
18647;SDS011;9453;50.294;18.644;2022-08-21T17:37:56;10.13;;;3.35;;
18647;SDS011;9453;50.294;18.644;2022-08-21T17:40:22;6.30;;;2.40;;
18647;SDS011;9453;50.294;18.644;2022-08-21T17:42:49;6.20;;;3.00;;
18647;SDS011;9453;50.294;18.644;2022-08-21T17:45:18;4.63;;;2.13;;
18647;SDS011;9453;50.294;18.644;2022-08-21T17:47:46;8.13;;;2.70;;
18647;SDS011;9453;50.294;18.644;2022-08-21T17:50:13;6.85;;;2.60;;
18647;SDS011;9453;50.294;18.644;2022-08-21T17:52:41;14.35;;;3.53;;
18647;SDS011;9453;50.294;18.644;2022-08-21T17:55:09;12.23;;;3.92;;
18647;SDS011;9453;50.294;18.644;2022-08-21T17:57:37;13.57;;;3.30;;
18647;SDS011;9453;50.294;18.644;2022-08-21T18:00:06;7.80;;;2.65;;
18647;SDS011;9453;50.294;18.644;2022-08-21T18:02:35;10.73;;;3.03;;
18647;SDS011;9453;50.294;18.644;2022-08-21T18:05:03;13.30;;;3.53;;
18647;SDS011;9453;50.294;18.644;2022-08-21T18:07:33;15.23;;;3.80;;
18647;SDS011;9453;50.294;18.644;2022-08-21T18:10:00;10.00;;;2.97;;
18647;SDS011;9453;50.294;18.644;2022-08-21T18:12:44;10.15;;;3.25;;
18647;SDS011;9453;50.294;18.644;2022-08-21T18:15:14;9.15;;;2.65;;
18647;SDS011;9453;50.294;18.644;2022-08-21T18:17:48;10.80;;;2.88;;
18647;SDS011;9453;50.294;18.644;2022-08-21T18:20:18;6.70;;;2.53;;
18647;SDS011;9453;50.294;18.644;2022-08-21T18:22:47;7.53;;;2.53;;
18647;SDS011;9453;50.294;18.644;2022-08-21T18:25:13;7.10;;;2.28;;
18647;SDS011;9453;50.294;18.644;2022-08-21T18:27:41;10.05;;;2.85;;
18647;SDS011;9453;50.294;18.644;2022-08-21T18:30:11;7.40;;;2.85;;
18647;SDS011;9453;50.294;18.644;2022-08-21T18:38:39;7.85;;;2.85;;
18647;SDS011;9453;50.294;18.644;2022-08-21T18:41:06;8.35;;;2.70;;
18647;SDS011;9453;50.294;18.644;2022-08-21T18:43:33;5.03;;;2.28;;
18647;SDS011;9453;50.294;18.644;2022-08-21T18:46:01;9.48;;;2.88;;
18647;SDS011;9453;50.294;18.644;2022-08-21T18:48:28;7.28;;;1.90;;
18647;SDS011;9453;50.294;18.644;2022-08-21T18:50:57;9.73;;;2.33;;
18647;SDS011;9453;50.294;18.644;2022-08-21T18:53:27;7.68;;;2.63;;
18647;SDS011;9453;50.294;18.644;2022-08-21T18:55:56;8.23;;;2.55;;
18647;SDS011;9453;50.294;18.644;2022-08-21T18:58:23;24.08;;;3.10;;
18647;SDS011;9453;50.294;18.644;2022-08-21T19:00:51;18.13;;;2.88;;
18647;SDS011;9453;50.294;18.644;2022-08-21T19:03:20;10.57;;;2.58;;
18647;SDS011;9453;50.294;18.644;2022-08-21T19:05:48;6.90;;;2.45;;
18647;SDS011;9453;50.294;18.644;2022-08-21T19:08:17;7.25;;;2.30;;
18647;SDS011;9453;50.294;18.644;2022-08-21T19:10:50;11.73;;;2.33;;